createdAt,value
2024-03-08T00:01:08.048Z,19.79
2024-03-08T00:03:38.005Z,19.85
2024-03-08T00:06:08.788Z,19.02
2024-03-08T00:08:38.834Z,19.30
2024-03-08T00:11:11.737Z,19.03
2024-03-08T00:13:41.793Z,18.90
2024-03-08T00:16:11.841Z,19.15
2024-03-08T00:18:41.853Z,18.44
2024-03-08T00:21:13.290Z,18.32
2024-03-08T00:23:43.390Z,18.67
2024-03-08T00:26:15.990Z,18.35
2024-03-08T00:28:45.930Z,19.01
2024-03-08T00:31:17.141Z,18.75
2024-03-08T00:33:47.254Z,18.33
2024-03-08T00:36:17.308Z,19.02
2024-03-08T00:38:47.242Z,18.95
2024-03-08T00:41:19.812Z,19.95
2024-03-08T00:43:50.530Z,19.53
2024-03-08T00:46:20.497Z,19.35
2024-03-08T00:48:50.551Z,19.29
2024-03-08T00:51:20.608Z,19.16
2024-03-08T00:53:50.630Z,19.28
2024-03-08T00:56:23.186Z,19.31
2024-03-08T00:58:53.136Z,19.95
2024-03-08T01:01:23.316Z,19.52
2024-03-08T01:03:53.461Z,19.50
2024-03-08T01:06:23.709Z,20.02
2024-03-08T01:08:54.203Z,20.05
2024-03-08T01:11:26.999Z,20.12
2024-03-08T01:13:57.101Z,20.94
2024-03-08T01:16:27.044Z,20.78
2024-03-08T01:18:57.465Z,20.10
2024-03-08T01:21:27.483Z,20.15
2024-03-08T01:23:57.455Z,20.70
2024-03-08T01:26:30.160Z,20.40
2024-03-08T01:29:00.452Z,20.92
2024-03-08T01:31:30.439Z,20.28
2024-03-08T01:34:00.681Z,21.37
2024-03-08T01:36:30.732Z,21.41
2024-03-08T01:39:00.845Z,20.50
2024-03-08T01:41:33.642Z,21.24
2024-03-08T01:44:04.276Z,21.19
2024-03-08T01:46:35.449Z,20.95
2024-03-08T01:49:06.409Z,21.31
2024-03-08T01:51:36.874Z,21.75
2024-03-08T01:54:08.457Z,21.14
2024-03-08T01:56:42.765Z,21.91
2024-03-08T01:59:13.711Z,21.24
2024-03-08T02:01:43.734Z,21.82
2024-03-08T02:04:13.723Z,21.93
2024-03-08T02:06:43.722Z,21.88
2024-03-08T02:09:13.774Z,22.04
2024-03-08T02:11:47.194Z,22.20
2024-03-08T02:14:17.195Z,21.52
2024-03-08T02:16:47.121Z,22.10
2024-03-08T02:19:17.068Z,22.27
2024-03-08T02:21:50.605Z,22.80
2024-03-08T02:24:20.810Z,22.66
2024-03-08T02:26:50.871Z,22.98
2024-03-08T02:29:21.907Z,22.03
2024-03-08T02:31:51.862Z,22.19
2024-03-08T02:34:21.897Z,22.40
2024-03-08T02:36:54.470Z,22.48
2024-03-08T02:39:24.500Z,21.92
2024-03-08T02:41:54.464Z,22.38
2024-03-08T02:44:25.398Z,22.51
2024-03-08T02:46:56.457Z,22.45
2024-03-08T02:49:26.501Z,22.57
2024-03-08T02:52:00.038Z,22.72
2024-03-08T02:54:30.030Z,23.08
2024-03-08T02:57:00.006Z,22.80
2024-03-08T02:59:30.425Z,22.28
2024-03-08T03:02:00.483Z,23.54
2024-03-08T03:04:30.434Z,23.52
2024-03-08T03:07:03.080Z,22.65
2024-03-08T03:09:34.193Z,22.96
2024-03-08T03:12:04.232Z,23.21
2024-03-08T03:14:35.136Z,23.53
2024-03-08T03:17:05.871Z,23.80
2024-03-08T03:19:36.918Z,24.38
2024-03-08T03:22:11.011Z,23.58
2024-03-08T03:24:43.381Z,23.33
2024-03-08T03:27:14.871Z,23.85
2024-03-08T03:29:47.074Z,23.07
2024-03-08T03:32:19.757Z,23.56
2024-03-08T03:34:49.723Z,23.36
2024-03-08T03:37:22.432Z,23.20
2024-03-08T03:39:54.438Z,23.58
2024-03-08T03:42:25.516Z,24.86
2024-03-08T03:44:55.623Z,24.46
2024-03-08T03:47:25.745Z,24.32
2024-03-08T03:49:55.718Z,23.29
2024-03-08T03:52:28.305Z,23.85
2024-03-08T03:54:58.285Z,24.79
2024-03-08T03:57:28.227Z,24.78
2024-03-08T03:59:58.522Z,24.06
2024-03-08T04:02:28.874Z,23.80
2024-03-08T04:04:59.423Z,24.88
2024-03-08T04:07:31.958Z,24.32
2024-03-08T04:10:01.899Z,25.57
2024-03-08T04:12:33.562Z,25.16
2024-03-08T04:15:03.836Z,25.71
2024-03-08T04:17:38.485Z,24.65
2024-03-08T04:20:12.131Z,25.49
2024-03-08T04:22:45.938Z,25.94
2024-03-08T04:25:15.975Z,25.78
2024-03-08T04:27:46.250Z,25.71
2024-03-08T04:30:17.012Z,25.53
2024-03-08T04:32:47.106Z,25.72
2024-03-08T04:35:17.382Z,25.85
2024-03-08T04:37:50.142Z,26.28
2024-03-08T04:40:20.383Z,27.11
2024-03-08T04:42:52.392Z,27.31
2024-03-08T04:45:23.043Z,25.69
2024-03-08T04:47:53.990Z,26.38
2024-03-08T04:50:24.829Z,26.22
2024-03-08T04:52:57.451Z,26.68
2024-03-08T04:55:27.431Z,26.94
2024-03-08T04:57:57.470Z,26.55
2024-03-08T05:00:27.527Z,26.94
2024-03-08T05:02:57.591Z,26.88
2024-03-08T05:05:29.802Z,26.99
2024-03-08T05:08:02.905Z,26.75
2024-03-08T05:10:32.848Z,27.12
2024-03-08T05:13:02.965Z,27.42
2024-03-08T05:15:36.193Z,27.07
2024-03-08T05:18:07.149Z,27.06
2024-03-08T05:20:38.471Z,28.01
2024-03-08T05:23:11.126Z,28.19
2024-03-08T05:25:41.079Z,28.22
2024-03-08T05:28:11.083Z,28.66
2024-03-08T05:30:42.361Z,28.54
2024-03-08T05:33:15.942Z,29.62
2024-03-08T05:35:45.964Z,28.74
2024-03-08T05:38:18.499Z,28.71
2024-03-08T05:40:48.474Z,29.10
2024-03-08T05:43:20.815Z,29.20
2024-03-08T05:45:51.265Z,27.95
2024-03-08T05:48:21.892Z,28.62
2024-03-08T05:50:51.982Z,28.07
2024-03-08T05:53:24.664Z,27.71
2024-03-08T05:55:55.475Z,27.75
2024-03-08T05:58:25.609Z,28.02
2024-03-08T06:00:55.796Z,27.34
2024-03-08T06:03:26.680Z,27.57
2024-03-08T06:05:57.852Z,34.44
2024-03-08T06:08:32.064Z,31.78
2024-03-08T06:11:04.090Z,26.55
2024-03-08T06:13:35.179Z,26.84
2024-03-08T06:16:05.897Z,26.92
2024-03-08T06:18:37.900Z,26.98
2024-03-08T06:21:10.397Z,26.64
2024-03-08T06:23:43.197Z,26.21
2024-03-08T06:26:13.168Z,25.57
2024-03-08T06:28:43.108Z,25.74
2024-03-08T06:31:13.422Z,25.84
2024-03-08T06:33:43.494Z,25.44
2024-03-08T06:36:13.664Z,25.34
2024-03-08T06:38:47.505Z,25.44
2024-03-08T06:41:18.333Z,25.53
2024-03-08T06:43:49.984Z,25.70
2024-03-08T06:46:22.342Z,26.26
2024-03-08T06:48:53.284Z,25.82
2024-03-08T06:51:25.403Z,26.33
2024-03-08T06:53:58.033Z,26.24
2024-03-08T06:56:28.004Z,25.17
2024-03-08T06:58:58.080Z,25.25
2024-03-08T07:01:28.908Z,25.37
2024-03-08T07:03:58.892Z,25.55
2024-03-08T07:06:29.945Z,25.71
2024-03-08T07:09:02.578Z,25.24
2024-03-08T07:11:32.732Z,25.72
2024-03-08T07:14:06.839Z,24.92
2024-03-08T07:16:37.047Z,25.26
2024-03-08T07:19:07.140Z,25.13
2024-03-08T07:21:37.315Z,25.32
2024-03-08T07:24:26.045Z,25.17
2024-03-08T07:26:56.773Z,25.20
2024-03-08T07:29:24.439Z,25.56
2024-03-08T07:32:02.930Z,24.84
2024-03-08T07:34:34.979Z,24.86
2024-03-08T07:37:07.905Z,24.27
2024-03-08T07:39:41.370Z,24.30
2024-03-08T07:42:12.191Z,24.00
2024-03-08T07:44:42.635Z,24.68
2024-03-08T07:47:13.451Z,23.87
2024-03-08T07:49:44.973Z,24.21
2024-03-08T07:52:16.906Z,24.78
2024-03-08T07:54:50.534Z,24.43
2024-03-08T07:57:21.591Z,25.27
2024-03-08T07:59:51.865Z,24.39
2024-03-08T08:02:21.871Z,24.93
2024-03-08T08:04:52.140Z,25.64
2024-03-08T08:07:22.498Z,25.18
2024-03-08T08:09:57.017Z,24.77
2024-03-08T08:12:27.046Z,24.28
2024-03-08T08:14:57.868Z,24.42
2024-03-08T08:17:27.844Z,25.17
2024-03-08T08:19:57.906Z,23.67
2024-03-08T08:22:28.776Z,23.42
2024-03-08T08:25:01.532Z,24.04
2024-03-08T08:27:31.512Z,24.97
2024-03-08T08:30:01.659Z,24.36
2024-03-08T08:32:31.684Z,24.82
2024-03-08T08:35:01.642Z,24.87
2024-03-08T08:37:32.562Z,23.92
2024-03-08T08:40:11.268Z,23.96
2024-03-08T08:42:41.558Z,24.11
2024-03-08T08:45:16.856Z,24.41
2024-03-08T08:47:48.474Z,24.35
2024-03-08T08:50:24.554Z,23.75
2024-03-08T08:52:55.443Z,23.98
2024-03-08T08:55:28.698Z,25.21
2024-03-08T08:57:58.751Z,22.91
2024-03-08T09:00:29.322Z,22.57
2024-03-08T09:02:59.879Z,22.60
2024-03-08T09:05:30.449Z,22.95
2024-03-08T09:08:01.568Z,21.53
2024-03-08T09:10:35.320Z,21.76
2024-03-08T09:13:05.788Z,20.95
2024-03-08T09:15:35.801Z,21.43
2024-03-08T09:18:07.330Z,20.75
2024-03-08T09:20:38.180Z,19.47
2024-03-08T09:23:09.670Z,20.06
2024-03-08T09:25:43.326Z,19.12
2024-03-08T09:28:15.277Z,18.20
2024-03-08T09:30:54.030Z,19.03
2024-03-08T09:33:30.247Z,17.46
2024-03-08T09:36:03.977Z,17.48
2024-03-08T09:38:35.594Z,17.65
2024-03-08T09:41:08.155Z,17.79
2024-03-08T09:43:38.272Z,17.24
2024-03-08T09:46:09.642Z,16.72
2024-03-08T09:48:42.827Z,17.23
2024-03-08T09:51:16.616Z,17.22
2024-03-08T09:53:47.709Z,16.92
2024-03-08T09:56:20.950Z,17.32
2024-03-08T09:59:16.108Z,17.06
2024-03-08T10:01:46.180Z,17.20
2024-03-08T10:04:17.912Z,17.71
2024-03-08T10:06:49.017Z,16.75
2024-03-08T10:09:19.146Z,16.63
2024-03-08T10:11:51.898Z,16.78
2024-03-08T10:14:22.833Z,17.06
2024-03-08T10:16:53.863Z,16.28
2024-03-08T10:19:26.639Z,16.94
2024-03-08T10:21:57.992Z,16.81
2024-03-08T10:24:28.466Z,17.59
2024-03-08T10:27:03.370Z,17.22
2024-03-08T10:29:33.330Z,16.45
2024-03-08T10:32:03.883Z,16.17
2024-03-08T10:34:33.962Z,16.89
2024-03-08T10:37:08.191Z,17.09
2024-03-08T10:39:40.898Z,16.54
2024-03-08T10:42:21.115Z,16.68
2024-03-08T10:45:04.401Z,17.06
2024-03-08T10:47:37.932Z,17.41
2024-03-08T10:50:22.106Z,17.36
2024-03-08T10:52:54.523Z,18.27
2024-03-08T10:55:25.666Z,19.00
2024-03-08T10:57:58.347Z,18.68
2024-03-08T11:00:30.187Z,18.43
2024-03-08T11:03:01.534Z,18.52
2024-03-08T11:05:44.703Z,18.15
2024-03-08T11:08:22.837Z,17.43
2024-03-08T11:10:57.382Z,16.72
2024-03-08T11:13:44.805Z,17.55
2024-03-08T11:16:20.399Z,17.77
2024-03-08T11:18:53.018Z,17.36
2024-03-08T11:21:27.494Z,17.66
2024-03-08T11:24:04.312Z,17.56
2024-03-08T11:26:37.018Z,17.51
2024-03-08T11:29:41.230Z,17.08
2024-03-08T11:32:13.443Z,15.48
2024-03-08T11:34:47.305Z,15.90
2024-03-08T11:37:19.686Z,16.74
2024-03-08T11:39:54.199Z,16.98
2024-03-08T11:42:24.405Z,16.77
2024-03-08T11:44:57.798Z,16.58
2024-03-08T11:47:27.794Z,15.76
2024-03-08T11:49:57.835Z,16.84
2024-03-08T11:52:28.602Z,16.87
2024-03-08T11:54:59.724Z,17.58
2024-03-08T11:57:30.896Z,16.95
2024-03-08T12:00:08.093Z,16.43
2024-03-08T12:02:42.644Z,16.66
2024-03-08T12:05:17.803Z,17.36
2024-03-08T12:07:47.880Z,17.27
2024-03-08T12:10:19.558Z,18.21
2024-03-08T12:12:51.333Z,17.84
2024-03-08T12:15:25.348Z,18.86
2024-03-08T12:17:57.797Z,18.83
2024-03-08T12:20:31.119Z,18.05
2024-03-08T12:23:02.350Z,17.63
2024-03-08T12:25:36.873Z,18.44
2024-03-08T12:28:16.256Z,19.43
2024-03-08T12:31:00.036Z,18.92
2024-03-08T12:33:30.119Z,18.44
2024-03-08T12:36:00.288Z,18.85
2024-03-08T12:38:33.104Z,18.68
2024-03-08T12:41:04.296Z,18.17
2024-03-08T12:43:35.475Z,18.63
2024-03-08T12:46:10.081Z,20.12
2024-03-08T12:48:41.939Z,18.98
2024-03-08T12:51:11.996Z,18.88
2024-03-08T12:53:42.111Z,18.78
2024-03-08T12:56:12.244Z,20.39
2024-03-08T12:58:43.924Z,22.17
2024-03-08T13:01:16.673Z,18.77
2024-03-08T13:03:47.716Z,18.07
2024-03-08T13:06:17.617Z,18.65
2024-03-08T13:08:49.177Z,19.24
2024-03-08T13:11:20.697Z,20.67
2024-03-08T13:13:51.394Z,20.01
2024-03-08T13:16:24.344Z,19.74
2024-03-08T13:18:55.029Z,19.92
2024-03-08T13:21:25.868Z,20.85
2024-03-08T13:23:56.424Z,21.06
2024-03-08T13:26:30.327Z,21.29
2024-03-08T13:29:00.314Z,22.38
2024-03-08T13:31:33.033Z,19.67
2024-03-08T13:34:03.065Z,19.55
2024-03-08T13:36:40.621Z,19.63
2024-03-08T13:39:16.723Z,20.19
2024-03-08T13:41:47.021Z,20.73
2024-03-08T13:44:18.511Z,20.57
2024-03-08T13:46:54.304Z,20.42
2024-03-08T13:49:25.673Z,20.17
2024-03-08T13:51:56.237Z,19.73
2024-03-08T13:54:26.223Z,19.93
2024-03-08T13:56:56.283Z,18.56
2024-03-08T13:59:30.462Z,18.73
2024-03-08T14:02:03.523Z,19.41
2024-03-08T14:04:33.548Z,18.45
2024-03-08T14:07:05.636Z,18.90
2024-03-08T14:09:38.574Z,18.67
2024-03-08T14:12:09.994Z,18.60
2024-03-08T14:14:40.329Z,19.41
2024-03-08T14:17:18.236Z,18.46
2024-03-08T14:19:48.348Z,18.89
2024-03-08T14:22:18.434Z,18.59
2024-03-08T14:24:48.590Z,18.32
2024-03-08T14:27:19.862Z,17.94
2024-03-08T14:29:49.876Z,18.17
2024-03-08T14:32:24.389Z,18.10
2024-03-08T14:34:56.458Z,17.30
2024-03-08T14:37:30.703Z,18.09
2024-03-08T14:40:00.782Z,18.21
2024-03-08T14:42:31.371Z,18.45
2024-03-08T14:45:01.529Z,18.10
2024-03-08T14:47:35.742Z,19.11
2024-03-08T14:50:08.445Z,17.97
2024-03-08T14:52:41.298Z,18.08
2024-03-08T14:55:15.554Z,17.89
2024-03-08T14:57:46.979Z,17.82
2024-03-08T15:00:28.076Z,17.96
2024-03-08T15:03:00.895Z,18.80
2024-03-08T15:05:33.712Z,18.75
2024-03-08T15:08:11.890Z,18.53
2024-03-08T15:10:44.509Z,19.29
2024-03-08T15:13:23.219Z,18.68
2024-03-08T15:15:59.133Z,18.40
2024-03-08T15:18:36.136Z,18.92
2024-03-08T15:21:09.102Z,19.09
2024-03-08T15:23:44.672Z,18.45
2024-03-08T15:26:14.805Z,18.66
2024-03-08T15:28:45.670Z,18.88
2024-03-08T15:31:16.097Z,19.61
2024-03-08T15:33:49.820Z,19.06
2024-03-08T15:36:22.452Z,15.17
2024-03-08T15:38:53.405Z,18.56
2024-03-08T15:41:23.600Z,18.05
2024-03-08T15:43:54.003Z,17.69
2024-03-08T15:46:24.597Z,18.66
2024-03-08T15:48:58.309Z,21.30
2024-03-08T15:51:28.490Z,26.63
2024-03-08T15:53:58.533Z,20.74
2024-03-08T15:56:29.262Z,19.33
2024-03-08T15:58:59.577Z,18.97
2024-03-08T16:01:29.988Z,18.25
2024-03-08T16:04:02.753Z,17.59
2024-03-08T16:06:32.689Z,16.84
2024-03-08T16:09:03.031Z,16.55
2024-03-08T16:11:34.519Z,15.41
2024-03-08T16:14:04.667Z,17.71
2024-03-08T16:16:34.853Z,17.98
2024-03-08T16:19:09.034Z,19.29
2024-03-08T16:21:39.201Z,18.13
2024-03-08T16:24:10.596Z,19.08
2024-03-08T16:26:40.540Z,18.65
2024-03-08T16:29:10.580Z,19.24
2024-03-08T16:31:41.083Z,20.72
2024-03-08T16:34:15.078Z,19.20
2024-03-08T16:36:45.040Z,18.63
2024-03-08T16:39:15.016Z,19.00
2024-03-08T16:41:45.127Z,21.84
2024-03-08T16:44:15.427Z,21.48
2024-03-08T16:46:45.592Z,18.94
2024-03-08T16:49:18.753Z,19.48
2024-03-08T16:51:49.218Z,19.10
2024-03-08T16:54:19.543Z,17.97
2024-03-08T16:56:50.529Z,18.60
2024-03-08T16:59:20.512Z,17.69
2024-03-08T17:01:50.951Z,17.97
2024-03-08T17:04:23.562Z,18.00
2024-03-08T17:06:54.906Z,18.34
2024-03-08T17:09:26.515Z,18.55
2024-03-08T17:11:56.573Z,18.44
2024-03-08T17:14:26.594Z,18.47
2024-03-08T17:16:58.693Z,18.10
2024-03-08T17:19:31.300Z,18.28
2024-03-08T17:22:01.750Z,19.68
2024-03-08T17:24:32.724Z,18.61
2024-03-08T17:27:02.701Z,19.03
2024-03-08T17:29:32.671Z,20.01
2024-03-08T17:32:02.843Z,19.44
2024-03-08T17:34:36.891Z,19.75
2024-03-08T17:37:07.599Z,18.74
2024-03-08T17:39:37.838Z,18.45
2024-03-08T17:42:08.373Z,18.93
2024-03-08T17:44:38.915Z,19.73
2024-03-08T17:47:09.000Z,19.68
2024-03-08T17:49:41.979Z,20.01
2024-03-08T17:52:12.130Z,19.72
2024-03-08T17:54:42.100Z,19.95
2024-03-08T17:57:12.339Z,19.49
2024-03-08T17:59:42.335Z,19.28
2024-03-08T18:02:13.729Z,19.14
2024-03-08T18:04:46.456Z,20.51
2024-03-08T18:07:16.666Z,20.22
2024-03-08T18:09:46.889Z,21.13
2024-03-08T18:12:16.892Z,20.70
2024-03-08T18:14:46.891Z,19.53
2024-03-08T18:17:17.414Z,21.97
2024-03-08T18:19:51.845Z,21.37
2024-03-08T18:22:21.921Z,21.96
2024-03-08T18:24:53.076Z,23.06
2024-03-08T18:27:25.112Z,22.56
2024-03-08T18:29:56.422Z,24.33
2024-03-08T18:32:26.509Z,26.86
2024-03-08T18:34:59.257Z,21.90
2024-03-08T18:37:29.431Z,21.44
2024-03-08T18:40:00.422Z,21.53
2024-03-08T18:42:31.316Z,21.60
2024-03-08T18:45:01.302Z,22.29
2024-03-08T18:47:31.322Z,22.60
2024-03-08T18:50:04.763Z,21.95
2024-03-08T18:52:34.790Z,21.74
2024-03-08T18:55:10.784Z,22.25
2024-03-08T18:57:45.084Z,22.13
2024-03-08T19:00:22.493Z,22.40
2024-03-08T19:02:54.254Z,21.54
2024-03-08T19:05:28.222Z,22.07
2024-03-08T19:07:59.681Z,22.52
2024-03-08T19:10:31.780Z,24.05
2024-03-08T19:13:02.875Z,27.09
2024-03-08T19:15:35.321Z,22.73
2024-03-08T19:18:09.510Z,24.77
2024-03-08T19:20:42.455Z,25.62
2024-03-08T19:23:14.702Z,26.43
2024-03-08T19:25:46.070Z,24.07
2024-03-08T19:28:17.799Z,23.53
2024-03-08T19:30:50.898Z,21.81
2024-03-08T19:33:22.392Z,21.74
2024-03-08T19:35:55.080Z,21.24
2024-03-08T19:38:25.039Z,21.00
2024-03-08T19:40:55.140Z,21.03
2024-03-08T19:43:28.530Z,20.63
2024-03-08T19:45:59.467Z,20.90
2024-03-08T19:48:29.771Z,19.94
2024-03-08T19:51:06.682Z,20.61
2024-03-08T19:53:36.847Z,20.57
2024-03-08T19:56:07.669Z,20.59
2024-03-08T19:58:38.869Z,21.10
2024-03-08T20:01:10.956Z,21.54
2024-03-08T20:03:41.014Z,20.55
2024-03-08T20:06:13.817Z,21.03
2024-03-08T20:08:43.721Z,20.09
2024-03-08T20:11:14.598Z,20.55
2024-03-08T20:13:44.973Z,20.59
2024-03-08T20:16:14.987Z,20.26
2024-03-08T20:18:45.339Z,20.85
2024-03-08T20:21:17.933Z,20.75
2024-03-08T20:23:49.151Z,20.24
2024-03-08T20:26:22.967Z,20.97
2024-03-08T20:28:53.068Z,20.68
2024-03-08T20:31:23.153Z,21.07
2024-03-08T20:33:53.393Z,20.58
2024-03-08T20:36:27.377Z,22.40
2024-03-08T20:38:58.964Z,28.35
2024-03-08T20:41:28.994Z,25.07
2024-03-08T20:43:59.458Z,21.24
2024-03-08T20:46:30.744Z,20.29
2024-03-08T20:49:02.073Z,20.48
2024-03-08T20:51:34.602Z,25.38
2024-03-08T20:54:06.389Z,21.04
2024-03-08T20:56:38.789Z,20.39
2024-03-08T20:59:11.443Z,20.23
2024-03-08T21:01:42.366Z,19.83
2024-03-08T21:04:14.011Z,19.68
2024-03-08T21:06:49.997Z,20.41
2024-03-08T21:09:19.954Z,20.39
2024-03-08T21:11:50.266Z,19.71
2024-03-08T21:14:20.328Z,19.84
2024-03-08T21:16:50.330Z,19.95
2024-03-08T21:19:20.936Z,19.58
2024-03-08T21:21:55.409Z,20.14
2024-03-08T21:24:25.404Z,20.65
2024-03-08T21:26:56.509Z,20.54
2024-03-08T21:29:26.620Z,19.97
2024-03-08T21:31:57.048Z,19.60
2024-03-08T21:34:27.178Z,20.42
2024-03-08T21:37:01.810Z,20.12
2024-03-08T21:39:32.146Z,19.63
2024-03-08T21:42:02.237Z,20.43
2024-03-08T21:44:32.617Z,20.77
2024-03-08T21:47:05.049Z,20.26
2024-03-08T21:49:35.191Z,20.11
2024-03-08T21:52:08.409Z,20.35
2024-03-08T21:54:39.117Z,22.64
2024-03-08T21:57:09.367Z,21.79
2024-03-08T21:59:41.361Z,20.77
2024-03-08T22:02:11.943Z,21.54
2024-03-08T22:04:42.301Z,21.23
2024-03-08T22:07:14.936Z,20.76
2024-03-08T22:09:44.974Z,20.70
2024-03-08T22:12:14.969Z,19.98
2024-03-08T22:14:45.364Z,20.01
2024-03-08T22:17:18.965Z,20.40
2024-03-08T22:19:50.452Z,20.31
2024-03-08T22:22:23.986Z,20.53
2024-03-08T22:24:57.678Z,23.25
2024-03-08T22:27:27.798Z,24.98
2024-03-08T22:29:58.337Z,28.76
2024-03-08T22:32:28.740Z,33.95
2024-03-08T22:34:58.760Z,33.74
2024-03-08T22:37:31.466Z,30.43
2024-03-08T22:40:02.601Z,29.45
2024-03-08T22:42:32.817Z,28.79
2024-03-08T22:45:04.605Z,27.24
2024-03-08T22:47:35.122Z,26.32
2024-03-08T22:50:06.085Z,27.64
2024-03-08T22:52:41.208Z,23.85
2024-03-08T22:55:13.119Z,24.58
2024-03-08T22:57:44.352Z,30.94
2024-03-08T23:00:35.755Z,28.04
2024-03-08T23:03:09.234Z,25.14
2024-03-08T23:05:39.202Z,26.80
2024-03-08T23:08:12.336Z,24.83
2024-03-08T23:10:43.327Z,25.26
2024-03-08T23:13:13.980Z,24.21
2024-03-08T23:15:44.934Z,26.06
2024-03-08T23:18:15.471Z,26.88
2024-03-08T23:20:46.171Z,26.78
2024-03-08T23:23:23.096Z,28.62
2024-03-08T23:25:53.203Z,26.48
2024-03-08T23:28:23.340Z,23.10
2024-03-08T23:30:53.809Z,21.21
2024-03-08T23:33:23.757Z,21.46
2024-03-08T23:35:55.600Z,18.85
2024-03-08T23:38:28.118Z,19.08
2024-03-08T23:40:58.108Z,21.57
2024-03-08T23:43:28.078Z,20.91
2024-03-08T23:45:58.099Z,19.80
2024-03-08T23:48:28.202Z,19.80
2024-03-08T23:50:58.151Z,18.85
2024-03-08T23:53:31.731Z,18.39
2024-03-08T23:56:01.744Z,18.76
2024-03-08T23:58:31.843Z,19.06
